Time;durP1;ratioP1;P1;durP2;ratioP2;P2;SDS_P1;SDS_P2;PMS_P1;PMS_P2;Temp;Humidity;BMP_temperature;BMP_pressure;BME280_temperature;BME280_humidity;BME280_pressure;Samples;Min_cycle;Max_cycle;Signal;HPM_P1;HPM_P2
2021/01/23 00:01:42;;;;;;;18.80;5.85;;;11.70;99.90;;;;;;5020633;28;20022;-74
2021/01/23 00:04:08;;;;;;;16.38;4.18;;;11.80;99.90;;;;;;5020465;28;20037;-73
2021/01/23 00:06:34;;;;;;;16.63;4.63;;;11.80;99.90;;;;;;5010474;28;20027;-74
2021/01/23 00:09:02;;;;;;;12.15;3.38;;;11.90;99.90;;;;;;5008938;28;20021;-75
2021/01/23 00:11:28;;;;;;;10.43;3.13;;;11.90;99.90;;;;;;5012083;28;20025;-76
2021/01/23 00:13:54;;;;;;;17.73;5.63;;;12.00;99.90;;;;;;5014631;28;20052;-74
2021/01/23 00:16:19;;;;;;;11.95;4.43;;;12.00;99.90;;;;;;5017329;28;20026;-77
2021/01/23 00:18:45;;;;;;;12.23;4.28;;;11.90;99.90;;;;;;5016997;28;20089;-76
2021/01/23 00:21:11;;;;;;;18.40;3.83;;;12.00;99.90;;;;;;5016713;28;20497;-74
2021/01/23 00:23:37;;;;;;;15.32;3.85;;;12.10;99.90;;;;;;5015663;28;20029;-73
2021/01/23 00:26:03;;;;;;;10.57;3.25;;;12.00;99.90;;;;;;5021081;28;20048;-73
2021/01/23 00:28:29;;;;;;;17.17;3.85;;;12.00;99.90;;;;;;5022380;28;20426;-75
2021/01/23 00:30:55;;;;;;;19.67;4.07;;;12.00;99.90;;;;;;5020034;28;20030;-73
2021/01/23 00:33:21;;;;;;;6.45;2.80;;;12.00;99.90;;;;;;5003776;28;20026;-75
2021/01/23 00:35:47;;;;;;;14.63;3.90;;;12.10;99.90;;;;;;5004037;28;20018;-74
2021/01/23 00:38:13;;;;;;;11.23;4.22;;;12.10;99.90;;;;;;5009847;28;20025;-77
2021/01/23 00:40:40;;;;;;;9.18;3.15;;;12.20;99.90;;;;;;5012708;28;20065;-74
2021/01/23 00:43:06;;;;;;;9.98;2.60;;;12.20;99.90;;;;;;5013213;28;20025;-74
2021/01/23 00:45:31;;;;;;;8.40;2.42;;;12.20;99.90;;;;;;5011681;28;20022;-77
2021/01/23 00:47:57;;;;;;;6.72;2.60;;;12.20;99.90;;;;;;5013469;28;20014;-74
2021/01/23 00:50:23;;;;;;;8.05;2.22;;;12.20;99.90;;;;;;5014511;28;20025;-74
2021/01/23 00:52:49;;;;;;;11.27;2.63;;;12.30;99.90;;;;;;5014153;28;20025;-75
2021/01/23 00:55:16;;;;;;;8.07;2.45;;;12.20;99.90;;;;;;5011485;28;20034;-76
2021/01/23 00:57:42;;;;;;;11.57;2.30;;;12.20;99.90;;;;;;5013550;28;20022;-74
2021/01/23 01:00:08;;;;;;;13.90;3.10;;;12.20;99.90;;;;;;5014110;28;20663;-74
2021/01/23 01:02:34;;;;;;;12.32;2.60;;;12.10;99.90;;;;;;5013642;28;20664;-73
2021/01/23 01:05:00;;;;;;;9.98;1.92;;;12.10;99.90;;;;;;5007639;28;20080;-74
2021/01/23 01:07:26;;;;;;;9.57;2.17;;;12.10;99.90;;;;;;5007698;28;20085;-73
2021/01/23 01:09:52;;;;;;;10.85;2.53;;;12.20;99.90;;;;;;5013958;28;20030;-75
2021/01/23 01:12:18;;;;;;;9.90;2.67;;;12.20;99.90;;;;;;5022759;28;20030;-73
2021/01/23 01:14:44;;;;;;;12.68;3.42;;;12.20;99.90;;;;;;5010893;28;20053;-74
2021/01/23 01:17:10;;;;;;;12.35;2.90;;;12.20;99.90;;;;;;5013313;28;20022;-74
2021/01/23 01:19:36;;;;;;;7.55;1.80;;;12.20;99.90;;;;;;5008239;28;20092;-73
2021/01/23 01:22:02;;;;;;;4.68;1.80;;;12.10;99.90;;;;;;5013483;28;20539;-77
2021/01/23 01:24:27;;;;;;;14.90;4.05;;;12.10;99.90;;;;;;5013030;28;20026;-78
2021/01/23 01:26:53;;;;;;;7.68;2.08;;;12.10;99.90;;;;;;5009159;28;20046;-73
2021/01/23 01:29:19;;;;;;;8.68;2.30;;;12.20;99.90;;;;;;5011073;28;20029;-73
2021/01/23 01:31:45;;;;;;;6.68;2.83;;;12.20;99.90;;;;;;5012687;28;20410;-73
2021/01/23 01:34:11;;;;;;;11.85;2.53;;;12.20;99.90;;;;;;5013353;28;20033;-74
2021/01/23 01:37:24;;;;;;;7.60;2.17;;;12.20;99.90;;;;;;5013369;28;20018;-74
2021/01/23 01:39:31;;;;;;;18.50;3.05;;;12.20;99.90;;;;;;5006561;28;20069;-76
2021/01/23 01:41:57;;;;;;;10.10;1.90;;;12.20;99.90;;;;;;5011224;28;20050;-74
2021/01/23 01:44:23;;;;;;;7.95;1.75;;;12.30;99.90;;;;;;5013106;28;20105;-73
2021/01/23 01:46:49;;;;;;;8.25;2.00;;;12.30;99.90;;;;;;5011653;28;20053;-76
2021/01/23 01:49:15;;;;;;;8.45;1.85;;;12.20;99.90;;;;;;5011358;28;20378;-75
2021/01/23 01:51:41;;;;;;;4.78;1.83;;;12.30;99.90;;;;;;5011073;28;20083;-76
2021/01/23 01:54:07;;;;;;;15.63;4.22;;;12.30;99.90;;;;;;5010910;28;20117;-77
2021/01/23 01:56:33;;;;;;;11.57;2.22;;;12.20;99.90;;;;;;5010103;28;20022;-75
2021/01/23 01:58:59;;;;;;;9.80;2.63;;;12.20;99.90;;;;;;5012930;28;20436;-78
2021/01/23 02:01:25;;;;;;;14.10;2.58;;;12.20;99.90;;;;;;5009303;28;20434;-74
2021/01/23 02:04:14;;;;;;;14.52;3.50;;;12.10;99.90;;;;;;5010341;28;20084;-74
2021/01/23 02:06:46;;;;;;;8.80;2.10;;;12.20;99.90;;;;;;4992822;28;20042;-75
2021/01/23 02:09:21;;;;;;;11.32;1.77;;;12.10;99.90;;;;;;5012727;28;20026;-75
2021/01/23 02:12:22;;;;;;;14.02;2.65;;;12.10;99.90;;;;;;5005211;28;20033;-73
2021/01/23 02:15:10;;;;;;;14.82;2.30;;;12.10;99.90;;;;;;5008181;28;20636;-74
2021/01/23 02:17:48;;;;;;;9.45;2.10;;;12.00;99.90;;;;;;5011727;28;20022;-74
2021/01/23 02:20:40;;;;;;;10.95;2.50;;;12.00;99.90;;;;;;5010967;28;20109;-74
2021/01/23 02:23:18;;;;;;;14.40;2.70;;;11.90;99.90;;;;;;4998197;28;20205;-73
2021/01/23 02:26:02;;;;;;;18.05;2.13;;;11.90;99.90;;;;;;5005587;28;20034;-76
2021/01/23 02:28:51;;;;;;;19.92;3.17;;;11.90;99.90;;;;;;5015956;28;20018;-73
2021/01/23 02:31:19;;;;;;;19.70;2.92;;;11.90;99.90;;;;;;5010846;28;20026;-73
2021/01/23 02:33:49;;;;;;;9.88;2.42;;;11.80;99.90;;;;;;5009784;28;20054;-74
2021/01/23 02:36:17;;;;;;;13.90;3.03;;;11.90;99.90;;;;;;5015164;28;20437;-74
2021/01/23 02:38:44;;;;;;;14.70;2.53;;;11.80;99.90;;;;;;5017316;28;20486;-74
2021/01/23 02:41:10;;;;;;;8.98;2.15;;;11.80;99.90;;;;;;5017290;28;20030;-74
2021/01/23 02:43:44;;;;;;;7.55;2.25;;;11.80;99.90;;;;;;5016423;28;20087;-76
2021/01/23 02:46:11;;;;;;;24.27;6.07;;;11.80;99.90;;;;;;5012676;28;20041;-76
2021/01/23 02:48:38;;;;;;;22.48;3.90;;;11.80;99.90;;;;;;5013243;28;20024;-73
2021/01/23 02:51:12;;;;;;;23.88;3.58;;;11.90;99.90;;;;;;5016877;28;20156;-77
2021/01/23 02:53:39;;;;;;;12.32;3.28;;;11.80;99.90;;;;;;5016982;28;20401;-73
2021/01/23 02:56:10;;;;;;;19.92;2.58;;;11.90;99.90;;;;;;5017845;28;20014;-74
2021/01/23 02:58:40;;;;;;;18.38;3.88;;;11.80;99.90;;;;;;5016494;28;20033;-77
2021/01/23 03:01:06;;;;;;;17.15;3.10;;;11.90;99.90;;;;;;5013112;28;20557;-73
2021/01/23 03:03:33;;;;;;;12.98;3.10;;;11.90;99.90;;;;;;5015514;28;20030;-74
2021/01/23 03:06:06;;;;;;;13.68;2.83;;;11.80;99.90;;;;;;5014470;28;20068;-77
2021/01/23 03:08:32;;;;;;;18.35;4.85;;;11.90;99.90;;;;;;5007116;28;20125;-74
2021/01/23 03:10:58;;;;;;;19.52;3.95;;;11.90;99.90;;;;;;5016241;28;20497;-73
2021/01/23 03:13:24;;;;;;;16.65;3.55;;;11.90;99.90;;;;;;5011989;28;20030;-74
2021/01/23 03:15:51;;;;;;;27.80;3.90;;;11.80;99.90;;;;;;5015602;28;20084;-74
2021/01/23 03:18:17;;;;;;;20.95;5.32;;;11.80;99.90;;;;;;5014786;28;20022;-74
2021/01/23 03:20:43;;;;;;;15.02;4.03;;;11.90;99.90;;;;;;5011223;28;20019;-74
2021/01/23 03:23:09;;;;;;;26.35;8.15;;;12.00;99.90;;;;;;5015870;28;20026;-77
2021/01/23 03:25:35;;;;;;;21.25;3.40;;;11.90;99.90;;;;;;5014611;28;20437;-74
2021/01/23 03:28:01;;;;;;;23.92;6.47;;;12.00;99.90;;;;;;5016225;28;20100;-73
2021/01/23 03:30:31;;;;;;;29.50;7.70;;;12.00;99.90;;;;;;5010562;28;20092;-73
2021/01/23 03:32:57;;;;;;;26.55;5.07;;;11.90;99.90;;;;;;5007543;28;20041;-74
2021/01/23 03:35:22;;;;;;;23.65;5.38;;;11.90;99.90;;;;;;5015616;28;20025;-75
2021/01/23 03:37:49;;;;;;;24.75;6.57;;;11.90;99.90;;;;;;5015264;28;20014;-76
2021/01/23 03:40:16;;;;;;;27.20;4.70;;;11.90;99.90;;;;;;5001355;28;20031;-73
2021/01/23 03:42:45;;;;;;;20.55;4.43;;;11.90;99.90;;;;;;5001358;28;20026;-76
2021/01/23 03:45:11;;;;;;;26.58;5.47;;;12.00;99.90;;;;;;5012809;28;20059;-75
2021/01/23 03:47:38;;;;;;;23.67;5.10;;;12.00;99.90;;;;;;5012531;28;20500;-74
2021/01/23 03:50:09;;;;;;;24.35;4.93;;;12.00;99.90;;;;;;5007081;28;20081;-74
2021/01/23 03:52:36;;;;;;;22.70;5.05;;;12.00;99.90;;;;;;5017246;28;20029;-76
2021/01/23 03:55:05;;;;;;;35.90;6.78;;;11.90;99.90;;;;;;5019816;28;20405;-75
2021/01/23 03:57:31;;;;;;;25.80;5.40;;;11.80;99.90;;;;;;5003172;28;20026;-74
2021/01/23 03:59:56;;;;;;;25.88;5.05;;;11.80;99.90;;;;;;5013909;28;20037;-76
2021/01/23 04:02:22;;;;;;;24.48;5.38;;;11.90;99.90;;;;;;5011511;28;20022;-75
2021/01/23 04:04:48;;;;;;;33.38;6.47;;;11.80;99.90;;;;;;5013675;28;20092;-74
2021/01/23 04:07:14;;;;;;;32.35;5.80;;;11.90;99.90;;;;;;5014405;28;20056;-76
2021/01/23 04:09:40;;;;;;;29.63;7.03;;;11.90;99.90;;;;;;5013828;28;20030;-77
2021/01/23 04:12:09;;;;;;;33.17;8.25;;;11.90;99.90;;;;;;5012983;28;20041;-74
2021/01/23 04:14:35;;;;;;;32.78;4.55;;;11.90;99.90;;;;;;5015098;28;20033;-74
2021/01/23 04:17:01;;;;;;;21.95;7.45;;;11.90;99.90;;;;;;5014261;28;20025;-75
2021/01/23 04:19:27;;;;;;;22.90;4.25;;;12.00;99.90;;;;;;5014108;28;20422;-74
2021/01/23 04:21:53;;;;;;;27.42;5.57;;;11.90;99.90;;;;;;5014774;28;20017;-74
2021/01/23 04:24:19;;;;;;;35.35;6.00;;;12.00;99.90;;;;;;5006954;28;20029;-75
2021/01/23 04:26:45;;;;;;;33.55;5.97;;;12.00;99.90;;;;;;5015889;28;20084;-74
2021/01/23 04:29:11;;;;;;;28.52;8.00;;;12.00;99.90;;;;;;5016029;28;20026;-74
2021/01/23 04:31:38;;;;;;;37.67;6.20;;;12.00;99.90;;;;;;5014348;28;20033;-73
2021/01/23 04:34:04;;;;;;;32.97;5.35;;;12.00;99.90;;;;;;5012330;28;20501;-76
2021/01/23 04:36:31;;;;;;;24.27;5.65;;;12.00;99.90;;;;;;5019062;28;20041;-75
2021/01/23 04:38:58;;;;;;;30.90;6.07;;;12.10;99.90;;;;;;5011868;28;20037;-73
2021/01/23 04:41:28;;;;;;;31.23;5.20;;;12.20;99.90;;;;;;5015519;28;20024;-76
2021/01/23 04:43:54;;;;;;;17.48;4.32;;;12.20;99.90;;;;;;5010787;28;20037;-77
2021/01/23 04:46:21;;;;;;;40.78;5.28;;;12.10;99.90;;;;;;5014608;28;20109;-74
2021/01/23 04:48:47;;;;;;;37.08;6.88;;;12.10;99.90;;;;;;5013755;28;20033;-75
2021/01/23 04:51:13;;;;;;;21.80;4.63;;;12.20;99.90;;;;;;5014041;28;20474;-74
2021/01/23 04:53:40;;;;;;;32.83;6.63;;;12.20;99.90;;;;;;5014782;28;20505;-74
2021/01/23 04:56:06;;;;;;;24.42;4.68;;;12.20;99.90;;;;;;5009026;28;20153;-74
2021/01/23 04:58:32;;;;;;;28.83;5.20;;;12.30;99.90;;;;;;5014499;28;20026;-74
2021/01/23 05:00:58;;;;;;;20.77;4.70;;;12.20;99.90;;;;;;5014910;28;20088;-74
2021/01/23 05:03:33;;;;;;;38.03;9.52;;;12.10;99.90;;;;;;5013885;28;20022;-74
2021/01/23 05:06:06;;;;;;;28.38;4.68;;;12.20;99.90;;;;;;5005807;28;20029;-79
2021/01/23 05:08:42;;;;;;;29.17;4.82;;;12.20;99.90;;;;;;5012483;28;20389;-74
2021/01/23 05:11:07;;;;;;;25.83;4.53;;;12.20;99.90;;;;;;5014246;28;20014;-74
2021/01/23 05:13:33;;;;;;;30.42;4.40;;;12.20;99.90;;;;;;5028488;28;20470;-75
2021/01/23 05:15:59;;;;;;;16.02;3.63;;;12.10;99.90;;;;;;5002897;28;20053;-76
2021/01/23 05:18:25;;;;;;;24.55;4.97;;;12.20;99.90;;;;;;5007485;28;20026;-74
2021/01/23 05:20:53;;;;;;;35.15;8.00;;;12.20;99.90;;;;;;5012368;28;20033;-77
2021/01/23 05:23:20;;;;;;;29.55;4.72;;;12.10;99.90;;;;;;5013183;28;20026;-74
2021/01/23 05:25:55;;;;;;;26.27;5.88;;;12.20;99.90;;;;;;5012875;28;20045;-74
2021/01/23 05:28:39;;;;;;;27.73;4.82;;;12.20;99.90;;;;;;5005354;28;20014;-74
2021/01/23 05:31:15;;;;;;;26.27;4.75;;;12.10;99.90;;;;;;5009610;28;20065;-77
2021/01/23 05:33:41;;;;;;;23.20;4.07;;;12.10;99.90;;;;;;5012127;28;20029;-75
2021/01/23 05:36:12;;;;;;;37.38;7.25;;;12.20;99.90;;;;;;5013096;28;20075;-74
2021/01/23 05:38:45;;;;;;;23.38;6.13;;;12.20;99.90;;;;;;5012884;28;20030;-77
2021/01/23 05:41:16;;;;;;;20.38;3.05;;;12.30;99.90;;;;;;5013489;28;20026;-74
2021/01/23 05:43:51;;;;;;;22.00;4.07;;;12.30;99.90;;;;;;5009730;28;20025;-74
2021/01/23 05:46:26;;;;;;;28.95;3.88;;;12.30;99.90;;;;;;5012039;28;20024;-74
2021/01/23 05:48:54;;;;;;;28.58;5.78;;;12.30;99.90;;;;;;5011855;28;20022;-74
2021/01/23 05:51:21;;;;;;;18.77;4.22;;;12.30;99.90;;;;;;5012362;28;20022;-77
2021/01/23 05:53:48;;;;;;;18.52;3.97;;;12.20;99.90;;;;;;5012684;28;20021;-74
2021/01/23 05:56:14;;;;;;;27.10;6.38;;;12.30;99.90;;;;;;5025553;28;20026;-76
2021/01/23 05:58:43;;;;;;;15.13;4.35;;;12.20;99.90;;;;;;5025498;28;20034;-74
2021/01/23 06:01:09;;;;;;;22.92;4.72;;;12.20;99.90;;;;;;5011255;28;20028;-77
2021/01/23 06:03:39;;;;;;;14.70;2.83;;;12.10;99.90;;;;;;5010358;28;20049;-74
2021/01/23 06:06:07;;;;;;;15.88;2.85;;;12.10;99.90;;;;;;5005605;28;20022;-77
2021/01/23 06:08:40;;;;;;;17.40;3.75;;;12.00;99.90;;;;;;5010108;28;20049;-74
2021/01/23 06:11:31;;;;;;;21.02;4.50;;;12.00;99.90;;;;;;5012133;28;20018;-73
2021/01/23 06:13:57;;;;;;;16.17;3.72;;;12.00;99.90;;;;;;4997051;28;20028;-76
2021/01/23 06:16:32;;;;;;;17.70;3.80;;;12.00;99.90;;;;;;4994992;28;20146;-75
2021/01/23 06:19:26;;;;;;;15.18;3.45;;;12.00;99.90;;;;;;5006158;28;20485;-74
2021/01/23 06:21:53;;;;;;;22.60;6.10;;;11.90;99.90;;;;;;5012506;28;20482;-75
2021/01/23 06:24:44;;;;;;;17.50;4.82;;;11.90;99.90;;;;;;5008649;28;20049;-77
2021/01/23 06:27:10;;;;;;;14.65;3.63;;;11.80;99.90;;;;;;5004734;28;20026;-74
2021/01/23 06:29:41;;;;;;;25.40;6.95;;;11.80;99.90;;;;;;5005410;28;20030;-75
2021/01/23 06:32:19;;;;;;;18.02;3.33;;;11.80;99.90;;;;;;5000990;28;20034;-79
2021/01/23 06:34:50;;;;;;;15.73;3.60;;;11.80;99.90;;;;;;4997607;28;20034;-78
2021/01/23 06:37:22;;;;;;;19.17;4.07;;;11.80;99.90;;;;;;5008647;28;20478;-75
2021/01/23 06:40:04;;;;;;;25.88;4.53;;;11.80;99.90;;;;;;5011155;28;20037;-75
2021/01/23 06:42:31;;;;;;;26.67;4.20;;;12.00;99.90;;;;;;5011909;28;20390;-74
2021/01/23 06:45:10;;;;;;;19.85;4.25;;;12.00;99.90;;;;;;5010000;28;20062;-75
2021/01/23 06:47:41;;;;;;;16.88;3.20;;;12.10;99.90;;;;;;5011746;28;20490;-79
2021/01/23 06:50:08;;;;;;;15.73;4.00;;;12.10;99.90;;;;;;5011009;28;20433;-75
2021/01/23 06:52:50;;;;;;;21.50;3.25;;;12.20;99.90;;;;;;5010528;28;20037;-79
2021/01/23 06:55:38;;;;;;;20.90;3.58;;;12.20;99.90;;;;;;5010780;28;20022;-77
2021/01/23 06:58:04;;;;;;;22.55;5.00;;;12.20;99.90;;;;;;4998056;28;20058;-79
2021/01/23 07:00:36;;;;;;;19.40;3.72;;;12.20;99.90;;;;;;5010702;28;20057;-75
2021/01/23 07:03:09;;;;;;;15.48;4.05;;;12.30;99.90;;;;;;5011413;28;20557;-75
2021/01/23 07:05:44;;;;;;;15.93;3.80;;;12.30;99.90;;;;;;5007376;28;20023;-76
2021/01/23 07:08:22;;;;;;;16.75;4.68;;;12.30;99.90;;;;;;5006347;28;20030;-75
2021/01/23 07:11:09;;;;;;;18.52;3.15;;;12.30;99.90;;;;;;5006698;28;20041;-75
2021/01/23 07:13:37;;;;;;;18.52;5.05;;;12.20;99.90;;;;;;5004089;28;20026;-77
2021/01/23 07:16:03;;;;;;;19.13;2.67;;;12.30;99.90;;;;;;5016075;28;20102;-75
2021/01/23 07:18:29;;;;;;;17.58;3.55;;;12.30;99.90;;;;;;5014466;28;20023;-75
2021/01/23 07:20:55;;;;;;;18.75;3.15;;;12.30;99.90;;;;;;5015772;28;20022;-76
2021/01/23 07:23:22;;;;;;;13.70;2.28;;;12.30;99.90;;;;;;5015381;28;20028;-76
2021/01/23 07:25:49;;;;;;;14.73;3.00;;;12.20;99.90;;;;;;5014427;28;20653;-76
2021/01/23 07:28:21;;;;;;;17.42;3.38;;;12.10;99.90;;;;;;5015771;28;20054;-75
2021/01/23 07:30:47;;;;;;;14.18;4.03;;;12.00;99.90;;;;;;5015223;28;20026;-75
2021/01/23 07:33:28;;;;;;;15.52;3.42;;;12.00;99.90;;;;;;5003151;28;20034;-75
2021/01/23 07:35:54;;;;;;;15.27;3.28;;;11.90;99.90;;;;;;5008347;28;20022;-75
2021/01/23 07:38:20;;;;;;;16.00;3.10;;;11.80;99.90;;;;;;5012078;28;20048;-75
2021/01/23 07:40:47;;;;;;;15.90;5.55;;;11.70;99.90;;;;;;5019885;28;20045;-76
2021/01/23 07:43:13;;;;;;;21.15;3.60;;;11.80;99.90;;;;;;5021197;28;20082;-75
2021/01/23 07:45:39;;;;;;;14.88;3.53;;;11.70;99.90;;;;;;5013335;28;20025;-78
2021/01/23 07:48:06;;;;;;;12.82;3.50;;;11.80;99.90;;;;;;4998439;28;20498;-75
2021/01/23 07:50:45;;;;;;;18.88;4.47;;;11.80;99.90;;;;;;5015157;28;20034;-76
2021/01/23 07:53:18;;;;;;;15.35;2.90;;;11.80;99.90;;;;;;5013448;28;20389;-78
2021/01/23 07:55:45;;;;;;;19.38;3.90;;;11.90;99.90;;;;;;5014845;28;20021;-77
2021/01/23 07:58:12;;;;;;;20.67;3.85;;;11.90;99.90;;;;;;5013657;28;20025;-75
2021/01/23 08:00:38;;;;;;;12.40;3.17;;;11.80;99.90;;;;;;5014415;28;20453;-76
2021/01/23 08:03:05;;;;;;;17.75;3.35;;;12.00;99.90;;;;;;5013677;28;20521;-79
2021/01/23 08:05:42;;;;;;;13.38;4.10;;;12.10;99.90;;;;;;5013380;28;20083;-75
2021/01/23 08:08:11;;;;;;;11.35;4.20;;;12.30;99.90;;;;;;5014090;28;20030;-75
2021/01/23 08:10:38;;;;;;;15.77;3.92;;;12.30;99.90;;;;;;5013916;28;20120;-75
2021/01/23 08:13:06;;;;;;;14.27;4.53;;;12.60;99.90;;;;;;5015032;28;20018;-78
2021/01/23 08:15:37;;;;;;;17.05;4.85;;;12.60;99.90;;;;;;5015043;28;20041;-75
2021/01/23 08:18:16;;;;;;;22.55;3.25;;;12.30;99.90;;;;;;5003455;28;20022;-76
2021/01/23 08:20:42;;;;;;;14.10;2.60;;;11.80;99.90;;;;;;5014394;28;20045;-74
2021/01/23 08:23:18;;;;;;;23.27;4.18;;;11.30;99.90;;;;;;5013925;28;20068;-75
2021/01/23 08:25:53;;;;;;;14.07;3.92;;;10.80;99.90;;;;;;4994018;28;20027;-75
2021/01/23 08:28:35;;;;;;;16.38;6.18;;;10.50;99.90;;;;;;5013180;28;20034;-75
2021/01/23 08:31:21;;;;;;;;;;;10.40;99.90;;;;;;5013330;28;20497;-82
2021/01/23 08:33:52;;;;;;;16.70;3.55;;;10.40;99.90;;;;;;5027881;28;20007;-80
2021/01/23 08:36:18;;;;;;;24.98;5.07;;;10.30;99.90;;;;;;5021862;28;20033;-76
2021/01/23 08:38:45;;;;;;;27.40;4.50;;;10.30;99.90;;;;;;5004954;28;20391;-80
2021/01/23 08:41:11;;;;;;;20.40;4.50;;;10.40;99.90;;;;;;4992977;28;20022;-78
2021/01/23 08:43:37;;;;;;;17.27;4.50;;;10.50;99.90;;;;;;4997645;28;20049;-78
2021/01/23 08:46:03;;;;;;;23.35;4.70;;;10.80;99.90;;;;;;5007407;28;20026;-79
2021/01/23 08:48:29;;;;;;;19.75;4.15;;;10.90;99.90;;;;;;5001742;28;20046;-79
2021/01/23 08:50:55;;;;;;;20.10;4.22;;;11.00;99.90;;;;;;4995555;28;20022;-77
2021/01/23 08:53:20;;;;;;;23.73;4.15;;;11.20;99.90;;;;;;5005251;28;20026;-80
2021/01/23 08:55:46;;;;;;;22.02;6.22;;;11.20;99.90;;;;;;5014641;28;20490;-81
2021/01/23 08:58:16;;;;;;;31.02;4.55;;;11.30;99.90;;;;;;5016270;28;20017;-78
2021/01/23 09:00:41;;;;;;;14.20;5.68;;;11.40;99.90;;;;;;5015977;28;20501;-79
2021/01/23 09:03:07;;;;;;;16.65;3.75;;;11.30;99.90;;;;;;5015859;28;20097;-78
2021/01/23 09:05:33;;;;;;;22.08;5.63;;;11.30;99.90;;;;;;5014481;28;20059;-80
2021/01/23 09:07:59;;;;;;;13.00;3.85;;;11.30;99.90;;;;;;5011693;28;20393;-74
2021/01/23 09:10:25;;;;;;;17.52;4.07;;;11.30;99.90;;;;;;5006965;28;20022;-73
2021/01/23 09:12:51;;;;;;;17.25;5.13;;;11.30;99.90;;;;;;5010620;28;20030;-78
2021/01/23 09:15:17;;;;;;;16.83;5.70;;;11.30;99.90;;;;;;5009295;28;20109;-78
2021/01/23 09:17:44;;;;;;;14.48;4.20;;;11.20;99.90;;;;;;5012146;28;20112;-78
2021/01/23 09:20:11;;;;;;;15.30;5.03;;;11.10;99.90;;;;;;5011614;28;20044;-77
2021/01/23 09:22:37;;;;;;;19.67;5.22;;;11.00;99.90;;;;;;5011240;28;20030;-77
2021/01/23 09:25:04;;;;;;;13.02;3.88;;;10.90;99.90;;;;;;5011657;28;20095;-77
2021/01/23 09:27:30;;;;;;;14.20;3.47;;;10.90;99.90;;;;;;5018936;28;20018;-77
2021/01/23 09:29:56;;;;;;;15.18;3.70;;;10.70;99.90;;;;;;5021245;28;20080;-81
2021/01/23 09:32:22;;;;;;;11.60;3.95;;;10.70;99.90;;;;;;5021025;28;20021;-78
2021/01/23 09:34:50;;;;;;;11.10;3.10;;;10.70;99.90;;;;;;5008900;28;20052;-77
2021/01/23 09:37:16;;;;;;;25.65;4.53;;;10.80;99.90;;;;;;4997839;28;20087;-77
2021/01/23 09:39:42;;;;;;;25.80;4.70;;;11.00;99.90;;;;;;4996217;28;20030;-77
2021/01/23 09:42:08;;;;;;;14.32;3.15;;;11.00;99.90;;;;;;4996000;28;20030;-78
2021/01/23 09:44:34;;;;;;;15.82;4.57;;;11.00;99.90;;;;;;4998754;28;20029;-78
2021/01/23 09:47:00;;;;;;;13.82;3.55;;;11.10;99.90;;;;;;5001514;28;20033;-77
2021/01/23 09:49:26;;;;;;;20.02;4.57;;;11.30;99.90;;;;;;5001823;28;20437;-78
2021/01/23 09:51:52;;;;;;;16.63;6.20;;;11.30;99.90;;;;;;5012019;28;20101;-79
2021/01/23 09:54:18;;;;;;;13.48;5.00;;;11.40;99.90;;;;;;5011497;28;20064;-78
2021/01/23 09:56:43;;;;;;;11.38;5.55;;;11.50;99.90;;;;;;4992649;28;20023;-78
2021/01/23 09:59:09;;;;;;;12.05;5.28;;;11.60;99.90;;;;;;4992269;28;20034;-78
2021/01/23 10:01:35;;;;;;;10.88;4.82;;;11.60;99.90;;;;;;5000001;28;20089;-78
2021/01/23 10:04:01;;;;;;;15.65;3.85;;;11.60;99.90;;;;;;5013547;28;20109;-77
2021/01/23 10:06:27;;;;;;;14.00;6.78;;;11.70;99.90;;;;;;5013713;28;20034;-78
2021/01/23 10:08:53;;;;;;;20.80;6.25;;;11.70;99.90;;;;;;5004453;28;20058;-78
2021/01/23 10:11:19;;;;;;;16.33;4.38;;;11.60;99.90;;;;;;5012944;28;20033;-77
2021/01/23 10:13:45;;;;;;;14.93;4.55;;;11.60;99.90;;;;;;5005512;28;20033;-76
2021/01/23 10:16:11;;;;;;;21.17;4.13;;;11.50;99.90;;;;;;5011409;28;20022;-82
2021/01/23 10:18:37;;;;;;;24.45;7.13;;;11.50;99.90;;;;;;5011328;28;20394;-79
2021/01/23 10:21:04;;;;;;;14.07;3.53;;;11.50;99.90;;;;;;5018388;28;20505;-81
2021/01/23 10:23:30;;;;;;;14.93;3.78;;;11.50;99.90;;;;;;5022593;28;20621;-81
2021/01/23 10:25:56;;;;;;;25.48;6.20;;;11.50;99.90;;;;;;5020577;28;20069;-79
2021/01/23 10:28:22;;;;;;;13.13;4.88;;;11.50;99.90;;;;;;5017715;28;20160;-81
2021/01/23 10:30:48;;;;;;;17.40;5.28;;;11.50;99.90;;;;;;5019509;28;20050;-80
2021/01/23 10:33:14;;;;;;;17.73;6.20;;;11.70;99.90;;;;;;5011650;28;20022;-80
2021/01/23 10:35:40;;;;;;;11.90;3.88;;;11.80;99.90;;;;;;5017436;28;20169;-80
2021/01/23 10:38:06;;;;;;;19.88;5.22;;;11.70;99.90;;;;;;5016105;28;20029;-82
2021/01/23 10:40:32;;;;;;;15.95;4.18;;;11.80;99.90;;;;;;5011845;28;20038;-76
2021/01/23 10:42:58;;;;;;;21.60;5.00;;;11.80;99.90;;;;;;5009119;28;20555;-77
2021/01/23 10:45:24;;;;;;;17.67;4.57;;;11.90;99.90;;;;;;5009656;28;20022;-73
2021/01/23 10:47:49;;;;;;;16.38;5.40;;;12.00;99.90;;;;;;5012208;28;20022;-77
2021/01/23 10:50:15;;;;;;;33.10;6.38;;;12.10;99.90;;;;;;5013509;28;20034;-76
2021/01/23 10:52:41;;;;;;;15.48;4.97;;;12.20;99.90;;;;;;5013968;28;20046;-77
2021/01/23 10:55:08;;;;;;;18.17;6.28;;;12.40;99.90;;;;;;5013632;28;20080;-77
2021/01/23 10:57:33;;;;;;;26.92;6.65;;;12.50;99.90;;;;;;5012395;28;20112;-77
2021/01/23 10:59:59;;;;;;;25.45;6.78;;;12.60;99.90;;;;;;5013102;28;20065;-77
2021/01/23 11:02:25;;;;;;;29.52;8.32;;;12.70;99.90;;;;;;5013039;28;20022;-77
2021/01/23 11:04:51;;;;;;;40.28;12.32;;;12.80;99.90;;;;;;5007945;28;20034;-78
2021/01/23 11:07:16;;;;;;;29.13;5.13;;;13.10;99.90;;;;;;5015214;28;20017;-76
2021/01/23 11:09:42;;;;;;;20.40;5.00;;;13.30;99.90;;;;;;5014772;28;20481;-76
2021/01/23 11:12:09;;;;;;;26.98;7.10;;;13.40;99.90;;;;;;5014388;28;20018;-77
2021/01/23 11:14:35;;;;;;;24.65;5.63;;;13.50;99.90;;;;;;5012976;28;20030;-78
2021/01/23 11:17:02;;;;;;;22.85;5.63;;;13.40;99.90;;;;;;5014787;28;20473;-76
2021/01/23 11:19:28;;;;;;;23.77;6.20;;;13.40;99.90;;;;;;5013681;28;20022;-78
2021/01/23 11:21:55;;;;;;;18.50;5.22;;;13.40;99.90;;;;;;5013625;28;20041;-78
2021/01/23 11:24:20;;;;;;;20.90;4.43;;;13.60;99.90;;;;;;5015167;28;20505;-77
2021/01/23 11:26:47;;;;;;;32.47;4.70;;;13.70;99.90;;;;;;5020713;28;20033;-78
2021/01/23 11:29:12;;;;;;;29.25;9.23;;;13.60;99.90;;;;;;5026226;28;20037;-78
2021/01/23 11:31:38;;;;;;;23.02;5.85;;;13.30;99.90;;;;;;5022593;28;20029;-78
2021/01/23 11:34:04;;;;;;;12.30;3.80;;;13.20;99.90;;;;;;5010328;28;20503;-77
2021/01/23 11:36:31;;;;;;;16.23;5.13;;;13.10;99.90;;;;;;5013170;28;20305;-81
2021/01/23 11:39:00;;;;;;;27.42;4.63;;;12.90;99.90;;;;;;5010910;28;20137;-80
2021/01/23 11:41:26;;;;;;;10.35;3.70;;;12.90;99.90;;;;;;5013669;28;20026;-77
2021/01/23 11:43:51;;;;;;;18.90;3.92;;;12.80;99.90;;;;;;5012685;28;20036;-77
2021/01/23 11:46:18;;;;;;;15.07;3.60;;;12.80;99.90;;;;;;5012436;28;20057;-77
2021/01/23 11:48:43;;;;;;;21.40;3.95;;;12.70;99.90;;;;;;5007361;28;20037;-77
2021/01/23 11:51:09;;;;;;;17.88;3.72;;;12.70;99.90;;;;;;5014414;28;20436;-78
2021/01/23 11:53:35;;;;;;;12.43;2.95;;;12.60;99.90;;;;;;5013471;28;20080;-78
2021/01/23 11:56:01;;;;;;;15.23;3.05;;;12.60;99.90;;;;;;5013938;28;20026;-77
2021/01/23 11:58:27;;;;;;;17.60;3.28;;;12.50;99.90;;;;;;5011830;28;20109;-78
2021/01/23 12:00:53;;;;;;;8.02;2.40;;;12.40;99.90;;;;;;5012968;28;20030;-77
2021/01/23 12:03:18;;;;;;;7.95;2.88;;;12.30;99.90;;;;;;5009854;28;20101;-78
2021/01/23 12:05:44;;;;;;;10.25;3.20;;;12.10;99.90;;;;;;5013937;28;20040;-77
2021/01/23 12:08:10;;;;;;;14.40;2.90;;;11.90;99.90;;;;;;5012833;28;20026;-78
2021/01/23 12:10:36;;;;;;;12.07;3.22;;;11.80;99.90;;;;;;5014171;28;20425;-78
2021/01/23 12:13:02;;;;;;;14.52;3.15;;;11.70;99.90;;;;;;5012551;28;20026;-77
2021/01/23 12:15:28;;;;;;;11.20;3.92;;;11.60;99.90;;;;;;5012019;28;20381;-77
2021/01/23 12:17:53;;;;;;;18.13;5.53;;;11.40;99.90;;;;;;5011216;28;20022;-76
2021/01/23 12:20:21;;;;;;;11.07;3.45;;;11.50;99.90;;;;;;5009688;28;20083;-78
2021/01/23 12:22:48;;;;;;;12.98;3.03;;;11.40;99.90;;;;;;5012773;28;20478;-77
2021/01/23 12:25:15;;;;;;;9.30;3.55;;;11.40;99.90;;;;;;5009861;28;20030;-78
2021/01/23 12:27:41;;;;;;;15.48;3.22;;;11.40;99.90;;;;;;5011035;28;20072;-77
2021/01/23 12:30:10;;;;;;;14.90;3.72;;;11.40;99.90;;;;;;5011880;28;20105;-77
2021/01/23 12:32:36;;;;;;;14.65;3.35;;;11.40;99.90;;;;;;5003002;28;20026;-78
2021/01/23 12:35:05;;;;;;;11.10;4.20;;;11.50;99.90;;;;;;5010064;28;20017;-77
2021/01/23 12:37:30;;;;;;;10.43;3.42;;;11.60;99.90;;;;;;5012978;28;20018;-77
2021/01/23 12:39:57;;;;;;;11.00;3.70;;;11.50;99.90;;;;;;5011291;28;20049;-77
2021/01/23 12:42:27;;;;;;;16.52;3.47;;;11.60;99.90;;;;;;5010357;28;20041;-77
2021/01/23 12:44:55;;;;;;;7.90;2.72;;;11.50;99.90;;;;;;5008587;28;20018;-77